• Join FlightAware (Why Join?)
  • Login
  • US Flag 
10:01PM EDT


 

Airport Tracker/Info


-or-


 

Live Flight TrackerFlight Track Log ✈ ASQ5745 ✈ 02-Nov-2013 ✈ KPIT - KORD

Flight Track Log - Related Links

Times and Time Zones

All times are in EDT time to prevent confusion due to time zone crossing. See the ASQ5745 flight status page for this flight to view local times or setup timezone preferences in your user account.

Time Position Orientation Groundspeed Altitude Reporting Facility
EDT Latitude Longitude Course Direction KTS MPH feet Rate Location/Type
06:01PM 40.5075 -80.3500 275° West 197 227 4,400  Level Cleveland Center
06:02PM 40.5739 -80.5905 291° West  Level Estimated
06:02PM 40.5272 -80.4353 287° West 242 278 7,400  Level Cleveland Center
06:03PM 40.6012 -80.7100 288° West  Level Estimated
06:03PM 40.5464 -80.5239 286° West 252 290 10,000  Level Cleveland Center
06:04PM 40.6283 -80.8296 282° West  Level Estimated
06:04PM 40.5669 -80.6169 286° West 264 304 10,600  Level Cleveland Center
06:05PM 40.6553 -80.9492 285° West  Level Estimated
06:05PM 40.5897 -80.7197 286° West 293 337 11,400  Level Cleveland Center
06:06PM 40.6142 -80.8342 286° West 322 371 13,000 1,740 Climbing Cleveland Center
06:07PM 40.6447 -80.9747 286° West 333 383 15,000 1,680 Climbing Cleveland Center
06:08PM 40.6672 -81.0811 286° West 337 388 16,500 1,560 Climbing Cleveland Center
06:09PM 40.6922 -81.2022 285° West 339 390 18,200 1,620 Climbing Cleveland Center
06:10PM 40.7233 -81.3492 286° West 352 405 19,900 1,320 Climbing Cleveland Center
06:11PM 40.7500 -81.4792 285° West 363 418 21,000 1,020 Climbing Cleveland Center
06:12PM 40.7747 -81.6142 284° West 373 429 22,000 1,020 Climbing Cleveland Center
06:13PM 40.8003 -81.7533 284° West 383 441 23,100 960 Climbing Cleveland Center
06:14PM 40.8267 -81.8928 284° West 385 443 24,000 420 Climbing Cleveland Center
06:15PM 40.8514 -82.0353 283° West 392 451 24,000  Level Cleveland Center
06:16PM 40.8778 -82.1825 283° West 403 464 24,000  Level Cleveland Center
06:17PM 40.9047 -82.3344 283° West 416 479 24,000  Level Cleveland Center
06:18PM 40.9319 -82.4872 283° West 422 486 24,000  Level Cleveland Center
06:19PM 40.9583 -82.6400 283° West 423 487 24,000  Level Cleveland Center
06:20PM 40.9861 -82.7942 283° West 424 488 24,000  Level Cleveland Center
06:21PM 41.0122 -82.9486 283° West 425 489 24,000  Level Cleveland Center
06:22PM 41.0386 -83.1028 283° West 426 490 24,000  Level Cleveland Center
06:23PM 41.0697 -83.2842 283° West 429 494 24,000  Level Cleveland Center
06:24PM 41.0961 -83.4389 283° West 426 490 24,000  Level Cleveland Center
06:25PM 41.1175 -83.5761 282° West 429 494 24,000  Level Cleveland Center
06:26PM 41.1436 -83.7322 283° West 433 498 24,000  Level Cleveland Center
06:27PM 41.1733 -83.9086 283° West 427 491 24,000  Level Cleveland Center
06:28PM 41.1889 -84.0011 283° West 430 495 24,000  Level Chicago Center
06:29PM 41.2183 -84.1858 282° West 428 493 24,000  Level Chicago Center
06:30PM 41.2261 -84.3436 274° West 428 493 24,000  Level Chicago Center
06:31PM 41.2311 -84.5017 272° West 430 495 24,000  Level Chicago Center
06:32PM 41.2353 -84.6625 272° West 432 497 24,000  Level Chicago Center
06:33PM 41.2414 -84.8219 273° West 433 498 24,000  Level Chicago Center
06:34PM 41.2450 -84.9764 272° West 421 484 24,000  Level Chicago Center
06:35PM 41.2500 -85.1206 273° West 398 458 24,000  Level Chicago Center
06:36PM 41.2561 -85.2575 273° West 378 435 24,000  Level Chicago Center
06:37PM 41.2619 -85.3983 273° West 377 434 24,000  Level Chicago Center
06:38PM 41.2667 -85.5467 272° West 392 451 24,000  Level Chicago Center
06:39PM 41.2717 -85.6983 273° West 407 468 24,000  Level Chicago Center
06:40PM 41.2783 -85.8831 273° West 413 475 24,000  Level Chicago Center
06:42PM 41.2825 -86.0344 272° West 410 472 24,000 -600 Level Chicago Center
06:43PM 41.3342 -86.1656 298° West 405 466 22,800 -1,620 Descending Chicago Center
06:44PM 41.3956 -86.2844 305° West 393 452 20,700 -2,040 Descending Chicago Center
06:45PM 41.4561 -86.4003 305° West 384 442 18,700 -1,980 Descending Chicago Center
06:46PM 41.5136 -86.5136 304° West 374 430 16,700 -1,980 Descending Chicago Center
06:47PM 41.5694 -86.6222 305° West 357 411 14,700 -2,040 Descending Chicago Center
06:48PM 41.6314 -86.7439 304° West 349 402 12,600 -1,320 Descending Chicago Center
06:49PM 41.7097 -86.8008 332° Northwest 332 382 12,000 -300 Descending Chicago Center
06:50PM 41.8044 -86.8144 354° North 339 390 12,000 -120 Level Chicago Center
06:51PM 41.8853 -86.8614 337° Northwest 336 387 11,800 -660 Descending Chicago Center
06:52PM 41.9233 -86.9700 295° West 323 372 10,700 -900 Descending Chicago Center
06:53PM 41.9594 -87.0792 294° West 323 372 10,000 -660 Descending Chicago Center
06:54PM 41.9814 -87.1789 287° West 286 329 9,400 -840 Descending Chicago Center
06:55PM 41.9825 -87.2925 271° West 259 298 8,300 -1,020 Descending Chicago Center
06:56PM 41.9839 -87.3889 271° West 259 298 7,400 -660 Descending Chicago Center
06:57PM 41.9822 -87.4811 269° West 252 290 7,000 -960 Descending Chicago Center
06:58PM 41.9825 -87.5758 270° West 253 291 5,500 -1,560 Descending Chicago Center
06:59PM 41.9833 -87.6500 271° West 235 270 4,200 -1,380 Descending Chicago TRACON
07:00PM 41.9833 -87.7333 270° West 198 228 3,100 -1,140 Descending Chicago TRACON
07:01PM 41.9833 -87.8000 270° West 171 197 2,100 -960 Descending Chicago TRACON
07:02PM 41.9833 -87.8500 270° West 140 161 1,300 -840 Descending Chicago TRACON